Time;durP1;ratioP1;P1;durP2;ratioP2;P2;SDS_P1;SDS_P2;PMS_P1;PMS_P2;Temp;Humidity;BMP_temperature;BMP_pressure;BME280_temperature;BME280_humidity;BME280_pressure;Samples;Min_cycle;Max_cycle;Signal;HPM_P1;HPM_P2
2022/06/13 00:01:25;;;;;;;;;;;15.80;66.70;;;;;;5032917;28;19913;-79
2022/06/13 00:03:51;;;;;;;;;;;15.80;66.50;;;;;;5007932;28;20042;-79
2022/06/13 00:06:17;;;;;;;;;;;15.80;66.60;;;;;;5021132;28;19936;-79
2022/06/13 00:08:43;;;;;;;;;;;15.80;66.70;;;;;;5029371;28;19917;-79
2022/06/13 00:11:11;;;;;;;;;;;15.80;67.00;;;;;;5012059;28;19972;-79
2022/06/13 00:13:37;;;;;;;;;;;15.60;67.50;;;;;;5031892;28;19924;-79
2022/06/13 00:16:03;;;;;;;;;;;15.50;68.00;;;;;;5037337;28;20000;-80
2022/06/13 00:18:28;;;;;;;;;;;15.60;67.90;;;;;;5021626;28;20293;-79
2022/06/13 00:20:54;;;;;;;;;;;15.50;68.30;;;;;;5029688;28;19956;-79
2022/06/13 00:23:20;;;;;;;;;;;15.30;68.70;;;;;;5031393;28;20415;-79
2022/06/13 00:25:45;;;;;;;;;;;15.20;69.00;;;;;;5018088;28;19916;-79
2022/06/13 00:28:11;;;;;;;;;;;15.20;69.00;;;;;;5007844;28;19917;-79
2022/06/13 00:30:36;;;;;;;;;;;15.10;69.50;;;;;;5034900;28;20280;-78
2022/06/13 00:33:02;;;;;;;;;;;15.00;70.10;;;;;;5032286;28;20296;-78
2022/06/13 00:35:27;;;;;;;;;;;15.00;70.40;;;;;;5026078;28;20321;-78
2022/06/13 00:37:53;;;;;;;;;;;14.90;71.20;;;;;;5010885;28;20184;-79
2022/06/13 00:40:18;;;;;;;;;;;14.90;71.30;;;;;;5026391;28;20028;-78
2022/06/13 00:42:46;;;;;;;;;;;15.00;71.40;;;;;;5008486;28;19917;-79
2022/06/13 00:45:16;;;;;;;;;;;15.00;71.00;;;;;;5025564;28;20103;-79
2022/06/13 00:47:43;;;;;;;;;;;15.10;70.50;;;;;;5029333;28;19914;-79
2022/06/13 00:50:10;;;;;;;;;;;15.00;70.60;;;;;;5034716;28;19917;-79
2022/06/13 00:52:45;;;;;;;;;;;14.90;70.90;;;;;;5029203;28;20611;-78
2022/06/13 00:55:12;;;;;;;;;;;15.00;71.20;;;;;;5013866;28;19914;-79
2022/06/13 00:57:38;;;;;;;;;;;14.90;72.70;;;;;;5029066;28;19939;-79
2022/06/13 01:00:06;;;;;;;;;;;14.90;72.00;;;;;;5034299;28;20368;-79
2022/06/13 01:02:32;;;;;;;;;;;14.90;72.10;;;;;;5012822;28;19921;-79
2022/06/13 01:04:58;;;;;;;;;;;14.90;71.80;;;;;;5033617;28;20276;-79
2022/06/13 01:07:24;;;;;;;;;;;14.80;71.50;;;;;;5026478;28;19932;-81
2022/06/13 01:12:35;;;;;;;;;;;14.80;71.50;;;;;;5028833;28;19935;-79
2022/06/13 01:15:10;;;;;;;;;;;14.70;71.80;;;;;;5012452;28;19913;-79
2022/06/13 01:17:54;;;;;;;;;;;14.60;71.90;;;;;;5031194;28;19913;-79
2022/06/13 01:20:22;;;;;;;;;;;14.70;71.80;;;;;;5026061;28;19917;-79
2022/06/13 01:23:06;;;;;;;;;;;14.70;71.90;;;;;;5036404;28;19924;-79
2022/06/13 01:25:38;;;;;;;;;;;14.60;72.30;;;;;;5039293;28;19917;-79
2022/06/13 01:28:17;;;;;;;;;;;14.60;72.40;;;;;;5028908;28;19913;-79
2022/06/13 01:31:01;;;;;;;;;;;14.50;72.40;;;;;;5030370;28;19921;-79
2022/06/13 01:33:37;;;;;;;;;;;14.40;72.80;;;;;;5032273;28;19928;-79
2022/06/13 01:36:12;;;;;;;;;;;14.30;73.50;;;;;;5026251;28;19924;-78
2022/06/13 01:38:56;;;;;;;;;;;14.30;73.20;;;;;;5006480;28;19939;-79
2022/06/13 01:41:21;;;;;;;;;;;14.50;73.00;;;;;;5028054;28;19959;-79
2022/06/13 01:43:53;;;;;;;;;;;14.50;72.90;;;;;;5013692;28;19980;-78
2022/06/13 01:46:33;;;;;;;;;;;14.30;73.10;;;;;;5021253;28;19913;-79
2022/06/13 01:49:02;;;;;;;;;;;14.30;73.50;;;;;;5037997;28;19929;-79
2022/06/13 01:51:50;;;;;;;;;;;14.30;73.40;;;;;;5020906;28;19940;-79
2022/06/13 01:54:16;;;;;;;;;;;14.20;73.60;;;;;;4984608;28;19913;-79
2022/06/13 01:56:53;;;;;;;;;;;14.30;73.60;;;;;;5017233;28;20390;-79
2022/06/13 01:59:37;;;;;;;;;;;14.20;73.70;;;;;;5015090;28;20062;-78
2022/06/13 02:02:10;;;;;;;;;;;14.20;73.70;;;;;;5031299;28;19917;-79
2022/06/13 02:04:48;;;;;;;;;;;14.20;74.10;;;;;;5036276;28;20383;-79
2022/06/13 02:07:19;;;;;;;;;;;14.30;74.10;;;;;;5010039;28;20388;-79
2022/06/13 02:09:51;;;;;;;;;;;14.20;74.10;;;;;;5013563;28;19921;-79
2022/06/13 02:12:19;;;;;;;;;;;14.30;74.40;;;;;;5027956;28;19921;-78
2022/06/13 02:14:51;;;;;;;;;;;14.30;74.20;;;;;;5029722;28;19920;-79
2022/06/13 02:17:17;;;;;;;;;;;14.40;74.10;;;;;;5011757;28;20308;-79
2022/06/13 02:19:43;;;;;;;;;;;14.30;74.20;;;;;;5032648;28;19920;-79
2022/06/13 02:22:11;;;;;;;;;;;14.10;74.60;;;;;;5016868;28;19913;-79
2022/06/13 02:24:54;;;;;;;;;;;14.20;74.90;;;;;;5013838;28;19921;-79
2022/06/13 02:27:22;;;;;;;;;;;14.30;74.70;;;;;;5028420;28;20391;-79
2022/06/13 02:29:50;;;;;;;;;;;14.30;74.60;;;;;;5015654;28;19920;-79
2022/06/13 02:32:19;;;;;;;;;;;14.30;74.50;;;;;;5034999;28;20364;-78
2022/06/13 02:35:00;;;;;;;;;;;14.30;74.50;;;;;;5036278;28;19924;-79
2022/06/13 02:37:31;;;;;;;;;;;14.20;74.80;;;;;;5031894;28;19921;-79
2022/06/13 02:40:03;;;;;;;;;;;14.20;75.30;;;;;;5021060;28;19917;-79
2022/06/13 02:42:44;;;;;;;;;;;14.20;75.40;;;;;;5030893;28;20012;-78
2022/06/13 02:45:13;;;;;;;;;;;14.20;75.30;;;;;;5016482;28;20162;-79
2022/06/13 02:47:44;;;;;;;;;;;14.20;75.60;;;;;;5014339;28;19913;-79
2022/06/13 02:50:16;;;;;;;;;;;14.20;75.30;;;;;;5033501;28;19924;-79
2022/06/13 02:52:47;;;;;;;;;;;14.30;74.70;;;;;;5012694;28;19924;-79
2022/06/13 02:55:13;;;;;;;;;;;14.40;74.40;;;;;;5037087;28;20004;-79
2022/06/13 02:57:47;;;;;;;;;;;14.40;74.70;;;;;;5033028;28;19920;-79
2022/06/13 03:00:25;;;;;;;;;;;14.30;74.80;;;;;;5034574;28;19962;-79
2022/06/13 03:03:00;;;;;;;;;;;14.00;75.30;;;;;;5012224;28;19917;-78
2022/06/13 03:05:40;;;;;;;;;;;14.00;75.50;;;;;;5035690;28;19963;-79
2022/06/13 03:08:25;;;;;;;;;;;14.10;75.40;;;;;;5012884;28;20016;-79
2022/06/13 03:10:59;;;;;;;;;;;14.10;75.40;;;;;;5028801;28;19913;-79
2022/06/13 03:13:34;;;;;;;;;;;14.10;76.00;;;;;;5022506;28;19921;-81
2022/06/13 03:16:03;;;;;;;;;;;14.20;75.80;;;;;;5037347;28;19995;-79
2022/06/13 03:18:36;;;;;;;;;;;14.20;75.80;;;;;;5019837;28;19921;-79
2022/06/13 03:21:02;;;;;;;;;;;14.40;75.50;;;;;;5036586;28;19985;-79
2022/06/13 03:23:35;;;;;;;;;;;14.40;75.90;;;;;;5014167;28;20012;-79
2022/06/13 03:26:05;;;;;;;;;;;14.40;75.10;;;;;;5035614;28;19936;-79
2022/06/13 03:28:46;;;;;;;;;;;14.50;74.90;;;;;;5032465;28;19921;-79
2022/06/13 03:31:16;;;;;;;;;;;14.60;74.70;;;;;;5033833;28;19967;-78
2022/06/13 03:33:44;;;;;;;;;;;14.60;74.40;;;;;;5032357;28;20358;-79
2022/06/13 03:36:09;;;;;;;;;;;14.60;74.20;;;;;;5033907;28;19996;-79
2022/06/13 03:38:38;;;;;;;;;;;14.60;74.40;;;;;;5012284;28;20019;-79
2022/06/13 03:41:04;;;;;;;;;;;14.40;74.90;;;;;;5024949;28;19913;-79
2022/06/13 03:43:39;;;;;;;;;;;14.30;75.50;;;;;;5031679;28;19974;-79
2022/06/13 03:46:05;;;;;;;;;;;14.20;75.70;;;;;;5018398;28;20133;-79
2022/06/13 03:48:46;;;;;;;;;;;14.30;75.90;;;;;;5033731;28;20008;-79
2022/06/13 03:51:13;;;;;;;;;;;14.40;75.90;;;;;;5030196;28;19949;-79
2022/06/13 03:53:44;;;;;;;;;;;14.40;76.10;;;;;;5010498;28;20075;-78
2022/06/13 03:56:17;;;;;;;;;;;14.40;75.90;;;;;;5028950;28;19929;-79
2022/06/13 03:58:55;;;;;;;;;;;14.50;76.00;;;;;;5025219;28;20331;-78
2022/06/13 04:01:23;;;;;;;;;;;14.50;76.20;;;;;;5009870;28;19924;-78
2022/06/13 04:03:49;;;;;;;;;;;14.60;76.20;;;;;;5032552;28;20185;-79
2022/06/13 04:06:32;;;;;;;;;;;14.60;75.90;;;;;;5032388;28;19913;-78
2022/06/13 04:08:58;;;;;;;;;;;14.70;75.20;;;;;;5031143;28;19917;-79
2022/06/13 04:11:32;;;;;;;;;;;14.90;74.60;;;;;;5032175;28;19967;-79
2022/06/13 04:14:13;;;;;;;;;;;14.90;74.60;;;;;;5030191;28;19918;-79
2022/06/13 04:16:45;;;;;;;;;;;15.00;74.30;;;;;;5032598;28;19917;-79
2022/06/13 04:19:27;;;;;;;;;;;15.10;73.70;;;;;;5031209;28;19967;-78
2022/06/13 04:22:11;;;;;;;;;;;15.20;73.60;;;;;;5029012;28;20328;-79
2022/06/13 04:25:13;;;;;;;;;;;15.20;73.20;;;;;;5028527;28;19923;-79
2022/06/13 04:27:58;;;;;;;;;;;15.20;73.30;;;;;;4971660;28;20049;-79
2022/06/13 04:30:26;;;;;;;;;;;15.30;72.90;;;;;;5024087;28;19975;-79
2022/06/13 04:33:10;;;;;;;;;;;15.30;73.10;;;;;;5033519;28;19917;-79
2022/06/13 04:35:36;;;;;;;;;;;15.20;74.00;;;;;;5031583;28;19925;-78
2022/06/13 04:38:05;;;;;;;;;;;15.40;73.50;;;;;;5023179;28;19928;-78
2022/06/13 04:40:33;;;;;;;;;;;15.30;74.60;;;;;;5029243;28;19944;-78
2022/06/13 04:43:00;;;;;;;;;;;15.20;75.00;;;;;;5028670;28;20000;-78
2022/06/13 04:45:27;;;;;;;;;;;15.20;75.30;;;;;;5026559;28;19924;-78
2022/06/13 04:47:54;;;;;;;;;;;15.20;74.60;;;;;;5026799;28;19914;-78
2022/06/13 04:50:40;;;;;;;;;;;15.00;75.20;;;;;;5024976;28;19959;-79
2022/06/13 04:53:07;;;;;;;;;;;15.10;75.00;;;;;;5018214;28;19924;-78
2022/06/13 04:55:36;;;;;;;;;;;15.10;75.10;;;;;;5023743;28;19914;-79
2022/06/13 04:58:01;;;;;;;;;;;15.10;75.20;;;;;;5029456;28;19971;-79
2022/06/13 05:00:28;;;;;;;;;;;15.10;75.10;;;;;;5006377;28;19921;-81
2022/06/13 05:02:55;;;;;;;;;;;15.10;75.30;;;;;;5036786;28;19963;-82
2022/06/13 05:05:33;;;;;;;;;;;15.00;75.40;;;;;;5012505;28;20010;-78
2022/06/13 05:07:58;;;;;;;;;;;14.70;77.20;;;;;;5029646;28;19921;-76
2022/06/13 05:10:26;;;;;;;;;;;14.70;78.60;;;;;;5033859;28;19921;-78
2022/06/13 05:12:52;;;;;;;;;;;14.80;78.50;;;;;;5035705;28;20334;-78
2022/06/13 05:15:23;;;;;;;;;;;14.90;78.80;;;;;;5030772;28;19936;-77
2022/06/13 05:18:07;;;;;;;;;;;14.90;80.10;;;;;;5028659;28;19924;-77
2022/06/13 05:20:45;;;;;;;;;;;15.00;80.40;;;;;;5034167;28;19968;-78
2022/06/13 05:23:30;;;;;;;;;;;14.90;82.10;;;;;;5041182;28;19939;-77
2022/06/13 05:25:57;;;;;;;;;;;14.90;81.90;;;;;;5008551;28;20287;-78
2022/06/13 05:28:25;;;;;;;;;;;15.00;81.80;;;;;;5027485;28;20356;-77
2022/06/13 05:30:51;;;;;;;;;;;14.90;81.90;;;;;;5035923;28;19921;-77
2022/06/13 05:33:22;;;;;;;;;;;14.90;82.60;;;;;;5032162;28;19925;-78
2022/06/13 05:35:52;;;;;;;;;;;15.00;82.30;;;;;;5033158;28;19928;-79
2022/06/13 05:38:19;;;;;;;;;;;15.00;83.10;;;;;;5012958;28;19918;-79
2022/06/13 05:40:45;;;;;;;;;;;15.00;82.40;;;;;;5032754;28;20008;-79
2022/06/13 05:43:11;;;;;;;;;;;15.00;82.70;;;;;;5042172;28;20402;-79
2022/06/13 05:45:38;;;;;;;;;;;15.00;82.90;;;;;;5041639;28;19921;-80
2022/06/13 05:48:03;;;;;;;;;;;15.00;83.40;;;;;;5012242;28;19979;-78
2022/06/13 05:50:29;;;;;;;;;;;15.00;83.30;;;;;;5027405;28;19924;-79
2022/06/13 05:52:55;;;;;;;;;;;15.00;83.40;;;;;;5034809;28;19928;-78
2022/06/13 05:55:21;;;;;;;;;;;15.00;83.70;;;;;;5035003;28;19913;-77
2022/06/13 05:57:46;;;;;;;;;;;14.90;83.60;;;;;;5034558;28;19913;-78
2022/06/13 06:00:17;;;;;;;;;;;14.90;83.90;;;;;;5032822;28;19995;-78
2022/06/13 06:02:42;;;;;;;;;;;14.80;83.70;;;;;;5026928;28;19935;-77
2022/06/13 06:05:07;;;;;;;;;;;14.90;83.40;;;;;;5026171;28;20367;-78
2022/06/13 06:07:33;;;;;;;;;;;14.90;84.50;;;;;;5036924;28;19917;-78
2022/06/13 06:09:59;;;;;;;;;;;14.80;84.60;;;;;;5012620;28;19913;-78
2022/06/13 06:12:25;;;;;;;;;;;14.80;84.70;;;;;;5019662;28;19921;-78
2022/06/13 06:14:50;;;;;;;;;;;14.80;85.10;;;;;;5036236;28;19967;-78
2022/06/13 06:17:16;;;;;;;;;;;14.90;84.50;;;;;;5021950;28;20451;-77
2022/06/13 06:19:41;;;;;;;;;;;14.90;85.20;;;;;;5031186;28;19924;-78
2022/06/13 06:22:07;;;;;;;;;;;14.90;85.70;;;;;;5038255;28;19913;-78
2022/06/13 06:24:32;;;;;;;;;;;14.90;86.30;;;;;;5037607;28;20055;-78
2022/06/13 06:26:58;;;;;;;;;;;15.00;86.00;;;;;;5023290;28;20334;-78
2022/06/13 06:29:24;;;;;;;;;;;14.90;85.40;;;;;;5036352;28;19917;-77
2022/06/13 06:31:50;;;;;;;;;;;15.00;84.50;;;;;;5035860;28;19953;-77
2022/06/13 06:34:15;;;;;;;;;;;15.10;84.60;;;;;;5033882;28;19940;-78
2022/06/13 06:36:41;;;;;;;;;;;15.20;85.00;;;;;;5035547;28;20379;-78
2022/06/13 06:39:06;;;;;;;;;;;15.10;84.80;;;;;;5037360;28;19909;-77
2022/06/13 06:41:33;;;;;;;;;;;15.00;85.20;;;;;;5037746;28;19952;-77
2022/06/13 06:43:58;;;;;;;;;;;15.10;86.50;;;;;;5038291;28;19913;-78
2022/06/13 06:46:24;;;;;;;;;;;15.10;85.90;;;;;;5034610;28;19994;-78
2022/06/13 06:48:51;;;;;;;;;;;15.00;85.80;;;;;;5031339;28;19917;-78
2022/06/13 06:51:17;;;;;;;;;;;15.10;86.00;;;;;;5044180;28;19913;-78
2022/06/13 07:01:56;;;;;;;;;;;15.30;85.30;;;;;;5039460;28;20395;-78
2022/06/13 07:04:22;;;;;;;;;;;15.50;85.70;;;;;;5037090;28;20368;-78
2022/06/13 07:06:47;;;;;;;;;;;15.70;85.00;;;;;;5021551;28;19924;-78
2022/06/13 07:09:13;;;;;;;;;;;15.90;85.00;;;;;;5032397;28;20352;-78
2022/06/13 07:11:53;;;;;;;;;;;16.00;83.20;;;;;;5037760;28;19917;-78
2022/06/13 07:14:20;;;;;;;;;;;16.10;82.80;;;;;;5034781;28;19909;-78
2022/06/13 07:16:45;;;;;;;;;;;16.30;82.80;;;;;;5017031;28;20364;-78
2022/06/13 07:19:11;;;;;;;;;;;16.40;83.00;;;;;;5035093;28;19921;-78
2022/06/13 07:21:36;;;;;;;;;;;16.30;82.10;;;;;;5034649;28;19917;-78
2022/06/13 07:24:02;;;;;;;;;;;16.30;82.50;;;;;;5032207;28;19933;-78
2022/06/13 07:26:27;;;;;;;;;;;16.30;81.60;;;;;;5026404;28;19924;-77
2022/06/13 07:28:53;;;;;;;;;;;16.30;82.10;;;;;;5033765;28;19913;-77
2022/06/13 07:31:19;;;;;;;;;;;16.30;82.20;;;;;;5015894;28;19971;-76
2022/06/13 07:33:46;;;;;;;;;;;16.50;81.90;;;;;;5016928;28;20010;-76
2022/06/13 07:36:11;;;;;;;;;;;16.80;80.60;;;;;;5014781;28;20287;-77
2022/06/13 07:38:37;;;;;;;;;;;17.00;78.70;;;;;;5030665;28;19917;-76
2022/06/13 07:41:02;;;;;;;;;;;17.00;78.50;;;;;;5025818;28;20398;-77
2022/06/13 07:43:29;;;;;;;;;;;17.10;78.20;;;;;;5031037;28;19981;-76
2022/06/13 07:45:57;;;;;;;;;;;16.80;78.30;;;;;;5023156;28;20205;-76
2022/06/13 07:48:23;;;;;;;;;;;16.70;78.40;;;;;;5028914;28;19914;-76
2022/06/13 07:50:48;;;;;;;;;;;16.60;79.60;;;;;;5003201;28;19914;-77
2022/06/13 07:53:14;;;;;;;;;;;16.60;79.30;;;;;;5012458;28;19918;-76
2022/06/13 07:55:40;;;;;;;;;;;16.70;78.90;;;;;;5013692;28;19920;-76
2022/06/13 07:58:06;;;;;;;;;;;16.70;80.30;;;;;;5031206;28;20299;-76
2022/06/13 08:00:36;;;;;;;;;;;16.60;79.20;;;;;;5029800;28;19909;-76
2022/06/13 08:03:02;;;;;;;;;;;16.60;79.10;;;;;;5028140;28;19998;-77
2022/06/13 08:05:31;;;;;;;;;;;16.60;80.50;;;;;;5029141;28;19917;-76
2022/06/13 08:07:57;;;;;;;;;;;16.60;79.60;;;;;;5032076;28;19928;-77
2022/06/13 08:10:23;;;;;;;;;;;16.70;79.30;;;;;;5031030;28;19915;-77
2022/06/13 08:12:48;;;;;;;;;;;16.90;78.70;;;;;;5032756;28;20017;-77
2022/06/13 08:15:14;;;;;;;;;;;17.00;79.90;;;;;;5004541;28;19914;-77
2022/06/13 08:17:40;;;;;;;;;;;17.00;76.60;;;;;;5027699;28;19933;-77
2022/06/13 08:20:07;;;;;;;;;;;17.10;76.50;;;;;;5028573;28;20623;-76
2022/06/13 08:22:33;;;;;;;;;;;17.40;74.50;;;;;;5026788;28;19913;-77
2022/06/13 08:24:59;;;;;;;;;;;17.60;73.20;;;;;;5029681;28;19917;-77
2022/06/13 08:27:26;;;;;;;;;;;17.60;74.30;;;;;;5027534;28;19917;-76
2022/06/13 08:29:52;;;;;;;;;;;17.60;72.00;;;;;;5022963;28;19917;-78
2022/06/13 08:32:17;;;;;;;;;;;17.80;71.90;;;;;;5001723;28;19972;-77
2022/06/13 08:34:42;;;;;;;;;;;17.90;72.80;;;;;;5028019;28;19977;-78
2022/06/13 08:37:08;;;;;;;;;;;18.10;71.00;;;;;;5021679;28;19944;-78
2022/06/13 08:39:33;;;;;;;;;;;18.30;70.00;;;;;;5025190;28;20002;-78
2022/06/13 08:42:17;;;;;;;;;;;18.40;69.80;;;;;;5021114;28;20329;-78
2022/06/13 08:45:04;;;;;;;;;;;18.60;70.80;;;;;;5029634;28;19928;-78
2022/06/13 08:47:33;;;;;;;;;;;18.50;68.80;;;;;;5020625;28;19978;-78
2022/06/13 08:50:11;;;;;;;;;;;18.40;70.50;;;;;;5012436;28;19948;-78
2022/06/13 08:52:36;;;;;;;;;;;18.20;70.20;;;;;;5023260;28;20508;-77
2022/06/13 08:55:10;;;;;;;;;;;18.30;70.50;;;;;;5026521;28;20273;-77
2022/06/13 08:57:38;;;;;;;;;;;18.20;69.30;;;;;;5027641;28;19925;-77
2022/06/13 09:00:08;;;;;;;;;;;18.30;70.30;;;;;;5009976;28;19992;-77
2022/06/13 09:02:46;;;;;;;;;;;18.30;68.20;;;;;;5005750;28;19988;-77
2022/06/13 09:05:18;;;;;;;;;;;18.50;67.30;;;;;;5007590;28;19920;-77
2022/06/13 09:07:51;;;;;;;;;;;18.40;67.90;;;;;;5015431;28;19921;-76
2022/06/13 09:10:21;;;;;;;;;;;18.40;68.50;;;;;;5024565;28;20371;-76
2022/06/13 09:12:49;;;;;;;;;;;18.50;70.00;;;;;;5026315;28;19918;-77
2022/06/13 09:15:17;;;;;;;;;;;18.40;68.70;;;;;;5010444;28;19921;-76
2022/06/13 09:17:50;;;;;;;;;;;18.50;67.00;;;;;;5015150;28;19917;-76
2022/06/13 09:20:16;;;;;;;;;;;18.40;66.60;;;;;;5009633;28;19923;-76
2022/06/13 09:23:02;;;;;;;;;;;18.30;66.70;;;;;;5025240;28;19972;-77
2022/06/13 09:25:45;;;;;;;;;;;18.30;68.00;;;;;;5007860;28;19921;-77
2022/06/13 09:28:14;;;;;;;;;;;18.40;67.00;;;;;;5074565;22;19925;-79
2022/06/13 09:31:03;;;;;;;;;;;18.60;64.20;;;;;;5058828;28;19924;-79
2022/06/13 09:33:30;;;;;;;;;;;18.60;61.00;;;;;;5042510;28;20076;-78
2022/06/13 09:35:56;;;;;;;;;;;18.80;59.80;;;;;;5061867;28;19921;-77
2022/06/13 09:38:30;;;;;;;;;;;18.70;61.90;;;;;;5045534;28;19919;-80
2022/06/13 09:41:05;;;;;;;;;;;18.60;63.50;;;;;;5033784;28;19939;-81
2022/06/13 09:43:40;;;;;;;;;;;18.40;60.40;;;;;;5047659;28;19919;-81
2022/06/13 09:46:14;;;;;;;;;;;18.40;63.20;;;;;;5054279;28;20012;-80
2022/06/13 09:48:59;;;;;;;;;;;18.50;61.80;;;;;;5036978;28;19913;-81
2022/06/13 09:51:24;;;;;;;;;;;18.80;60.50;;;;;;5034240;28;19936;-81
2022/06/13 09:53:55;;;;;;;;;;;18.80;62.20;;;;;;5035529;28;19920;-80
2022/06/13 09:56:29;;;;;;;;;;;18.90;61.40;;;;;;5041719;28;19913;-79
2022/06/13 09:58:55;;;;;;;;;;;18.90;60.40;;;;;;5046992;28;19995;-81
2022/06/13 10:01:29;;;;;;;;;;;18.60;60.40;;;;;;5038775;28;19943;-82
2022/06/13 10:04:04;;;;;;;;;;;18.50;61.50;;;;;;5050269;28;19917;-79
2022/06/13 10:06:39;;;;;;;;;;;18.30;59.90;;;;;;5048175;28;20277;-79
2022/06/13 10:09:18;;;;;;;;;;;18.20;61.50;;;;;;5032189;28;19913;-79
2022/06/13 10:11:48;;;;;;;;;;;18.30;62.90;;;;;;5035594;28;19923;-78
2022/06/13 10:14:32;;;;;;;;;;;18.40;60.00;;;;;;5040541;28;19935;-78
2022/06/13 10:17:12;;;;;;;;;;;18.60;60.40;;;;;;5037674;28;20011;-78
2022/06/13 10:19:44;;;;;;;;;;;18.80;62.40;;;;;;5049356;28;20011;-78
2022/06/13 10:22:28;;;;;;;;;;;19.10;59.70;;;;;;5037033;28;19923;-81
2022/06/13 10:24:58;;;;;;;;;;;19.50;57.30;;;;;;5044067;28;20373;-79
2022/06/13 10:27:39;;;;;;;;;;;19.60;54.10;;;;;;5041172;28;19923;-80
2022/06/13 10:30:19;;;;;;;;;;;19.80;51.50;;;;;;5036200;28;19921;-79
2022/06/13 10:33:04;;;;;;;;;;;19.90;50.10;;;;;;5041966;28;20003;-78
2022/06/13 10:35:42;;;;;;;;;;;19.90;52.90;;;;;;5063719;28;19900;-79
2022/06/13 10:38:24;;;;;;;;;;;20.00;50.90;;;;;;5053132;28;19982;-79
2022/06/13 10:40:50;;;;;;;;;;;20.00;50.60;;;;;;5049563;28;19917;-79
2022/06/13 10:43:15;;;;;;;;;;;19.60;52.50;;;;;;5050354;28;19999;-79
2022/06/13 10:45:41;;;;;;;;;;;19.50;52.80;;;;;;5060277;28;19995;-79
2022/06/13 10:48:13;;;;;;;;;;;19.70;54.40;;;;;;5065899;28;19939;-78
2022/06/13 10:50:39;;;;;;;;;;;19.90;51.00;;;;;;5058818;28;19913;-80
2022/06/13 10:53:07;;;;;;;;;;;19.80;50.80;;;;;;5057212;28;19984;-78
2022/06/13 10:55:36;;;;;;;;;;;19.80;49.70;;;;;;5038965;28;19910;-79
2022/06/13 10:58:05;;;;;;;;;;;19.60;49.90;;;;;;5059664;28;19913;-79
2022/06/13 11:00:31;;;;;;;;;;;19.30;50.60;;;;;;5031729;28;20020;-78
2022/06/13 11:03:29;;;;;;;;;;;19.20;50.80;;;;;;5053075;28;19959;-79
2022/06/13 11:06:00;;;;;;;;;;;19.30;50.20;;;;;;5016455;28;20341;-78
2022/06/13 11:08:27;;;;;;;;;;;19.50;51.10;;;;;;5036653;28;20285;-79
2022/06/13 11:10:57;;;;;;;;;;;19.60;47.50;;;;;;5034133;28;20479;-82
2022/06/13 11:13:25;;;;;;;;;;;19.80;48.10;;;;;;5050844;28;19947;-83
2022/06/13 11:24:46;;;;;;;;;;;20.30;48.00;;;;;;5035969;28;19920;-82
2022/06/13 11:27:41;;;;;;;;;;;20.10;49.10;;;;;;5026324;28;19912;-82
2022/06/13 11:30:19;;;;;;;;;;;20.30;48.90;;;;;;5032730;28;19920;-80
2022/06/13 11:33:03;;;;;;;;;;;20.00;49.20;;;;;;5027757;28;19916;-78
2022/06/13 11:35:35;;;;;;;;;;;19.90;49.00;;;;;;5033582;28;20427;-78
2022/06/13 11:38:13;;;;;;;;;;;20.10;49.10;;;;;;5027190;28;20004;-79
2022/06/13 11:40:38;;;;;;;;;;;20.20;47.20;;;;;;5049299;28;20355;-80
2022/06/13 11:43:04;;;;;;;;;;;20.50;45.30;;;;;;5050007;28;19955;-80
2022/06/13 11:45:29;;;;;;;;;;;20.60;46.50;;;;;;5045440;28;19912;-81
2022/06/13 11:47:55;;;;;;;;;;;20.60;46.50;;;;;;5028844;28;20005;-78
2022/06/13 11:50:29;;;;;;;;;;;20.80;44.60;;;;;;5051524;28;19912;-78
2022/06/13 11:55:51;;;;;;;;;;;21.20;44.30;;;;;;5047468;28;20024;-79
2022/06/13 11:58:19;;;;;;;;;;;21.10;42.50;;;;;;5048793;28;19953;-79
2022/06/13 12:00:52;;;;;;;;;;;21.20;42.90;;;;;;5037043;28;20273;-78
2022/06/13 12:03:18;;;;;;;;;;;21.20;41.20;;;;;;5023233;28;19920;-78
2022/06/13 12:05:44;;;;;;;;;;;21.30;40.00;;;;;;5029178;28;20355;-76
2022/06/13 12:08:16;;;;;;;;;;;21.10;42.80;;;;;;5033760;28;19917;-76
2022/06/13 12:10:52;;;;;;;;;;;21.20;45.00;;;;;;5046266;28;19917;-78
2022/06/13 12:13:20;;;;;;;;;;;21.10;41.80;;;;;;5034025;28;19917;-78
2022/06/13 12:15:50;;;;;;;;;;;21.20;43.80;;;;;;5027043;28;19913;-77
2022/06/13 12:18:21;;;;;;;;;;;21.30;43.30;;;;;;5044252;28;19913;-77
2022/06/13 12:20:50;;;;;;;;;;;21.10;41.70;;;;;;5029737;28;20496;-78
2022/06/13 12:23:31;;;;;;;;;;;20.90;43.20;;;;;;5028122;28;20385;-77
2022/06/13 12:26:04;;;;;;;;;;;20.60;44.80;;;;;;5047930;28;19920;-78
2022/06/13 12:28:53;;;;;;;;;;;20.30;45.10;;;;;;5031685;28;19975;-77
2022/06/13 12:31:39;;;;;;;;;;;20.10;44.50;;;;;;5019754;28;19920;-78
2022/06/13 12:34:18;;;;;;;;;;;19.60;45.90;;;;;;5027405;28;19923;-76
2022/06/13 12:37:01;;;;;;;;;;;19.60;46.80;;;;;;5025623;28;19923;-78
2022/06/13 12:39:48;;;;;;;;;;;19.80;47.50;;;;;;5050234;28;19917;-77
2022/06/13 12:42:13;;;;;;;;;;;20.00;47.30;;;;;;5048780;28;20361;-78
2022/06/13 12:44:55;;;;;;;;;;;20.10;47.40;;;;;;5035054;28;19976;-78
2022/06/13 12:47:39;;;;;;;;;;;20.10;46.50;;;;;;5035132;28;19917;-77
2022/06/13 12:50:18;;;;;;;;;;;20.50;46.40;;;;;;5034733;28;19942;-78
2022/06/13 12:52:49;;;;;;;;;;;20.50;46.40;;;;;;5033648;28;19939;-77
2022/06/13 12:55:27;;;;;;;;;;;20.40;44.70;;;;;;5041197;28;19917;-77
2022/06/13 12:57:55;;;;;;;;;;;20.30;45.60;;;;;;5028942;28;19923;-77
2022/06/13 13:00:24;;;;;;;;;;;20.40;46.30;;;;;;5031455;28;19967;-77
2022/06/13 13:02:59;;;;;;;;;;;20.30;45.90;;;;;;5030751;28;20035;-78
2022/06/13 13:05:43;;;;;;;;;;;20.30;47.20;;;;;;5030698;28;19913;-78
2022/06/13 13:08:17;;;;;;;;;;;20.30;46.70;;;;;;5049287;28;19924;-77
2022/06/13 13:10:55;;;;;;;;;;;20.10;46.20;;;;;;5049590;28;19936;-77
2022/06/13 13:13:29;;;;;;;;;;;19.90;47.10;;;;;;5034396;28;19916;-77
2022/06/13 13:16:10;;;;;;;;;;;19.80;47.10;;;;;;5035857;28;19967;-76
2022/06/13 13:18:39;;;;;;;;;;;19.80;47.60;;;;;;5030815;28;19952;-76
2022/06/13 13:21:09;;;;;;;;;;;19.80;47.90;;;;;;5051246;28;19920;-77
2022/06/13 13:23:40;;;;;;;;;;;19.70;46.30;;;;;;5016272;28;19910;-77
2022/06/13 13:26:22;;;;;;;;;;;19.60;47.00;;;;;;5032474;28;19939;-78
2022/06/13 13:28:55;;;;;;;;;;;19.60;46.90;;;;;;5014996;28;19917;-77
2022/06/13 13:31:41;;;;;;;;;;;19.60;46.40;;;;;;5042739;28;19913;-77
2022/06/13 13:34:25;;;;;;;;;;;19.70;46.80;;;;;;5050305;28;19924;-77
2022/06/13 13:37:19;;;;;;;;;;;20.10;47.80;;;;;;5032683;28;20004;-78
2022/06/13 13:39:48;;;;;;;;;;;20.40;45.00;;;;;;5051007;28;19909;-78
2022/06/13 13:42:21;;;;;;;;;;;20.20;45.60;;;;;;5036116;28;19948;-77
2022/06/13 13:44:56;;;;;;;;;;;20.20;45.90;;;;;;5037184;28;19995;-78
2022/06/13 13:47:22;;;;;;;;;;;20.10;47.00;;;;;;5054776;28;19913;-77
2022/06/13 13:49:48;;;;;;;;;;;20.00;46.10;;;;;;5035924;28;19920;-76
2022/06/13 13:52:19;;;;;;;;;;;20.00;47.30;;;;;;5036795;28;19942;-77
2022/06/13 13:54:46;;;;;;;;;;;20.00;46.50;;;;;;5037661;28;19962;-76
2022/06/13 13:57:18;;;;;;;;;;;20.10;45.60;;;;;;5055378;28;19963;-77
2022/06/13 13:59:45;;;;;;;;;;;20.20;45.10;;;;;;5036631;28;19921;-77
2022/06/13 14:02:27;;;;;;;;;;;20.40;44.70;;;;;;5054317;28;20101;-77
2022/06/13 14:05:11;;;;;;;;;;;20.40;42.40;;;;;;5027540;28;20000;-77
2022/06/13 14:07:45;;;;;;;;;;;20.50;41.00;;;;;;5048293;28;20345;-76
2022/06/13 14:10:14;;;;;;;;;;;20.50;40.60;;;;;;5051811;28;20132;-77
2022/06/13 14:12:58;;;;;;;;;;;20.50;42.10;;;;;;5053831;28;20357;-77
2022/06/13 14:15:32;;;;;;;;;;;20.50;43.10;;;;;;5054749;28;19909;-77
2022/06/13 14:17:57;;;;;;;;;;;20.60;43.00;;;;;;5037171;28;20229;-77
2022/06/13 14:20:27;;;;;;;;;;;20.50;41.80;;;;;;5053867;28;19962;-77
2022/06/13 14:22:57;;;;;;;;;;;20.60;41.60;;;;;;5055462;28;19927;-77
2022/06/13 14:25:25;;;;;;;;;;;20.50;41.80;;;;;;5051412;28;19909;-77
2022/06/13 14:27:51;;;;;;;;;;;20.70;42.30;;;;;;5055900;28;20016;-77
2022/06/13 14:33:07;;;;;;;;;;;20.90;42.20;;;;;;5055789;28;20356;-77
2022/06/13 14:35:48;;;;;;;;;;;20.90;41.50;;;;;;5055982;28;19913;-77
2022/06/13 14:38:22;;;;;;;;;;;20.90;41.00;;;;;;5037661;28;19913;-77
2022/06/13 14:40:53;;;;;;;;;;;21.00;42.70;;;;;;5038977;28;19909;-76
2022/06/13 14:43:35;;;;;;;;;;;21.10;42.00;;;;;;5055032;28;19912;-77
2022/06/13 14:46:03;;;;;;;;;;;21.10;41.60;;;;;;5055734;28;19978;-77
2022/06/13 14:48:28;;;;;;;;;;;20.90;41.40;;;;;;5054930;28;19970;-77
2022/06/13 14:50:59;;;;;;;;;;;21.10;40.70;;;;;;5036699;28;20369;-76
2022/06/13 14:53:24;;;;;;;;;;;21.00;41.10;;;;;;5042020;28;19974;-77
2022/06/13 14:56:22;;;;;;;;;;;20.80;41.80;;;;;;5032015;28;19913;-76
2022/06/13 14:58:48;;;;;;;;;;;20.50;42.10;;;;;;5024746;28;20016;-76
2022/06/13 15:01:31;;;;;;;;;;;20.30;41.70;;;;;;5035559;28;20368;-78
2022/06/13 15:04:00;;;;;;;;;;;20.20;41.30;;;;;;5035189;28;19920;-77
2022/06/13 15:06:27;;;;;;;;;;;20.30;42.10;;;;;;5051074;28;20392;-79